createdAt,value
2022-08-28T00:19:53.223Z,20.64
2022-08-28T00:34:37.441Z,20.64
2022-08-28T01:20:06.047Z,20.67
2022-08-28T01:34:58.017Z,20.60
2022-08-28T01:49:49.834Z,20.56
2022-08-28T02:04:43.344Z,20.44
2022-08-28T02:19:35.435Z,20.46
2022-08-28T02:34:26.242Z,20.37
2022-08-28T02:49:17.872Z,20.27
2022-08-28T03:04:10.159Z,20.19
2022-08-28T03:19:02.191Z,20.15
2022-08-28T03:48:46.289Z,20.11
2022-08-28T04:03:38.744Z,20.09
2022-08-28T04:18:31.660Z,20.19
2022-08-28T04:33:23.821Z,20.14
2022-08-28T04:48:15.596Z,20.13
2022-08-28T05:03:06.716Z,20.19
2022-08-28T05:17:59.042Z,20.18
2022-08-28T05:32:50.754Z,20.22
2022-08-28T05:47:42.631Z,20.36
2022-08-28T06:02:36.276Z,20.50
2022-08-28T06:17:31.476Z,20.65
2022-08-28T06:32:23.947Z,20.63
2022-08-28T06:47:15.389Z,20.68
2022-08-28T07:02:07.982Z,20.75
2022-08-28T07:16:59.539Z,20.81
2022-08-28T07:31:51.516Z,21.01
2022-08-28T07:46:43.132Z,21.17
2022-08-28T08:01:37.650Z,21.38
2022-08-28T08:16:31.618Z,21.53
2022-08-28T08:31:28.594Z,21.71
2022-08-28T08:46:24.125Z,22.01
2022-08-28T09:01:34.294Z,22.17
2022-08-28T09:16:31.479Z,22.19
2022-08-28T09:31:29.183Z,22.37
2022-08-28T09:46:25.317Z,22.67
2022-08-28T10:01:28.056Z,22.87
2022-08-28T10:16:27.772Z,23.51
2022-08-28T10:31:35.436Z,23.72
2022-08-28T10:46:47.549Z,23.82
2022-08-28T11:17:01.018Z,24.18
2022-08-28T11:31:56.345Z,24.55
2022-08-28T11:46:49.592Z,24.77
2022-08-28T12:01:41.561Z,24.64
2022-08-28T12:17:00.942Z,24.80
2022-08-28T12:32:13.353Z,25.40
2022-08-28T12:47:09.977Z,25.28
2022-08-28T13:02:04.718Z,25.38
2022-08-28T13:17:01.222Z,26.09
2022-08-28T13:31:56.213Z,25.90
2022-08-28T13:46:52.342Z,26.13
2022-08-28T14:02:03.720Z,26.54
2022-08-28T14:16:59.122Z,26.77
2022-08-28T14:31:52.490Z,27.32
2022-08-28T14:46:45.251Z,27.65
2022-08-28T15:01:40.641Z,27.87
2022-08-28T15:16:31.619Z,28.19
2022-08-28T15:31:25.627Z,28.05
2022-08-28T15:46:17.241Z,27.63
2022-08-28T16:01:06.725Z,27.17
2022-08-28T16:15:57.540Z,27.00
2022-08-28T16:30:49.061Z,26.94
2022-08-28T16:45:41.381Z,26.81
2022-08-28T17:00:32.950Z,26.67
2022-08-28T17:30:49.691Z,26.39
2022-08-28T17:45:41.117Z,26.21
2022-08-28T18:00:35.763Z,26.04
2022-08-28T18:15:26.723Z,25.80
2022-08-28T19:00:52.968Z,24.98
2022-08-28T19:15:44.552Z,24.72
2022-08-28T19:30:35.810Z,24.48
2022-08-28T19:45:26.636Z,24.24
2022-08-28T20:15:11.018Z,23.82
2022-08-28T20:30:07.148Z,23.62
2022-08-28T20:44:53.558Z,23.52
2022-08-28T20:59:45.591Z,23.48
2022-08-28T21:14:37.139Z,23.36
2022-08-28T21:29:28.787Z,23.14
2022-08-28T21:59:11.185Z,22.79
2022-08-28T22:28:54.998Z,22.69
2022-08-28T22:43:49.929Z,22.26
2022-08-28T22:58:42.625Z,21.90
2022-08-28T23:13:33.710Z,21.58
2022-08-28T23:28:24.755Z,21.38
2022-08-28T23:43:16.198Z,21.16
2022-08-28T23:58:07.504Z,21.04
